createdAt,value
2017-11-22T00:00:37.564Z,2.65
2017-11-22T00:03:05.072Z,2.30
2017-11-22T00:05:37.473Z,2.42
2017-11-22T00:08:04.965Z,2.35
2017-11-22T00:10:32.487Z,2.87
2017-11-22T00:12:59.982Z,2.58
2017-11-22T00:15:27.478Z,2.33
2017-11-22T00:17:54.986Z,2.47
2017-11-22T00:20:22.489Z,3.30
2017-11-22T00:22:50.006Z,3.25
2017-11-22T00:25:17.498Z,2.85
2017-11-22T00:27:45.784Z,2.35
2017-11-22T00:30:13.324Z,3.00
2017-11-22T00:32:41.606Z,2.80
2017-11-22T00:35:09.886Z,3.20
2017-11-22T00:37:38.142Z,2.80
2017-11-22T00:40:05.661Z,2.67
2017-11-22T00:42:33.160Z,2.97
2017-11-22T00:45:00.682Z,2.42
2017-11-22T00:47:28.188Z,2.83
2017-11-22T00:49:55.681Z,2.65
2017-11-22T00:52:23.205Z,3.35
2017-11-22T00:54:50.707Z,2.60
2017-11-22T00:57:18.225Z,2.87
2017-11-22T00:59:45.723Z,2.20
2017-11-22T01:02:13.247Z,3.00
2017-11-22T01:04:40.742Z,2.28
2017-11-22T01:07:08.248Z,2.72
2017-11-22T01:09:35.771Z,2.40
2017-11-22T01:12:03.270Z,2.00
2017-11-22T01:14:30.777Z,2.45
2017-11-22T01:16:58.282Z,2.58
2017-11-22T01:19:26.030Z,2.33
2017-11-22T01:21:53.539Z,2.53
2017-11-22T01:24:21.818Z,2.60
2017-11-22T01:26:49.334Z,3.00
2017-11-22T01:29:16.837Z,2.30
2017-11-22T01:31:45.118Z,2.42
2017-11-22T01:34:13.374Z,2.78
2017-11-22T01:36:40.890Z,3.90
2017-11-22T01:39:08.393Z,2.20
2017-11-22T01:41:35.909Z,2.60
2017-11-22T01:44:03.402Z,2.30
2017-11-22T01:46:30.893Z,1.80
2017-11-22T01:48:59.173Z,3.30
2017-11-22T01:51:27.433Z,2.42
2017-11-22T01:53:55.710Z,2.85
2017-11-22T01:56:23.202Z,2.60
2017-11-22T01:58:50.718Z,2.50
2017-11-22T02:01:18.215Z,2.65
2017-11-22T02:03:45.734Z,2.25
2017-11-22T02:06:13.225Z,2.12
2017-11-22T02:08:41.512Z,2.30
2017-11-22T02:11:09.039Z,2.30
2017-11-22T02:13:36.541Z,2.80
2017-11-22T02:16:04.054Z,2.45
2017-11-22T02:18:31.549Z,2.50
2017-11-22T02:20:59.075Z,2.90
2017-11-22T02:23:26.565Z,2.35
2017-11-22T02:25:54.099Z,2.10
2017-11-22T02:28:21.595Z,2.85
2017-11-22T02:30:50.039Z,2.30
2017-11-22T02:33:18.309Z,3.00
2017-11-22T02:35:45.820Z,2.95
2017-11-22T02:38:13.335Z,2.20
2017-11-22T02:40:40.830Z,2.95
2017-11-22T02:43:08.345Z,2.30
2017-11-22T02:45:35.856Z,2.40
2017-11-22T02:48:03.375Z,3.17
2017-11-22T02:50:31.649Z,2.70
2017-11-22T02:52:59.141Z,2.58
2017-11-22T02:55:26.665Z,2.80
2017-11-22T02:57:54.166Z,2.35
2017-11-22T03:00:21.693Z,2.65
2017-11-22T03:02:49.968Z,2.60
2017-11-22T03:05:18.251Z,2.10
2017-11-22T03:07:46.555Z,2.70
2017-11-22T03:10:14.053Z,2.60
2017-11-22T03:12:41.561Z,2.47
2017-11-22T03:15:09.086Z,2.70
2017-11-22T03:17:36.598Z,2.85
2017-11-22T03:20:04.098Z,2.50
2017-11-22T03:22:31.614Z,2.92
2017-11-22T03:24:59.114Z,3.08
2017-11-22T03:27:26.614Z,2.50
2017-11-22T03:29:54.881Z,2.35
2017-11-22T03:32:23.148Z,2.17
2017-11-22T03:34:51.430Z,2.72
2017-11-22T03:37:19.699Z,3.33
2017-11-22T03:39:47.213Z,2.08
2017-11-22T03:42:14.722Z,2.50
2017-11-22T03:44:42.213Z,2.40
2017-11-22T03:47:09.729Z,2.20
2017-11-22T03:49:42.807Z,1.60
2017-11-22T03:52:15.883Z,2.25
2017-11-22T03:54:43.379Z,1.80
2017-11-22T03:57:10.905Z,3.20
2017-11-22T03:59:39.404Z,2.00
2017-11-22T04:02:06.918Z,3.70
2017-11-22T04:04:34.424Z,2.17
2017-11-22T04:07:01.952Z,1.83
2017-11-22T04:09:29.457Z,1.87
2017-11-22T04:11:57.794Z,1.95
2017-11-22T04:14:25.285Z,2.75
2017-11-22T04:16:52.798Z,2.40
2017-11-22T04:19:25.940Z,2.20
2017-11-22T04:21:53.462Z,2.08
2017-11-22T04:24:20.955Z,3.08
2017-11-22T04:26:48.478Z,2.28
2017-11-22T04:29:15.994Z,2.20
2017-11-22T04:31:44.261Z,2.25
2017-11-22T04:34:11.786Z,2.50
2017-11-22T04:36:39.282Z,2.00
2017-11-22T04:39:07.561Z,1.80
2017-11-22T04:41:36.836Z,3.10
2017-11-22T04:44:04.357Z,2.35
2017-11-22T04:46:31.872Z,2.00
2017-11-22T04:48:59.360Z,2.47
2017-11-22T04:51:27.630Z,2.20
2017-11-22T04:53:55.889Z,2.45
2017-11-22T04:56:23.398Z,2.35
2017-11-22T04:58:50.888Z,2.35
2017-11-22T05:01:18.381Z,2.10
2017-11-22T05:03:46.656Z,2.10
2017-11-22T05:06:14.165Z,2.20
2017-11-22T05:08:41.675Z,2.70
2017-11-22T05:11:09.935Z,3.50
2017-11-22T05:13:38.228Z,2.60
2017-11-22T05:16:06.493Z,2.45
2017-11-22T05:18:34.002Z,2.42
2017-11-22T05:21:01.502Z,2.17
2017-11-22T05:23:29.002Z,2.65
2017-11-22T05:25:56.513Z,3.35
2017-11-22T05:28:24.025Z,3.05
2017-11-22T05:30:51.552Z,2.35
2017-11-22T05:33:19.041Z,2.50
2017-11-22T05:35:46.571Z,2.37
2017-11-22T05:38:14.060Z,2.35
2017-11-22T05:40:41.570Z,2.87
2017-11-22T05:43:09.072Z,2.58
2017-11-22T05:45:37.332Z,3.33
2017-11-22T05:48:05.608Z,2.40
2017-11-22T05:50:33.100Z,2.20
2017-11-22T05:53:00.617Z,2.85
2017-11-22T05:55:28.105Z,2.53
2017-11-22T05:57:55.601Z,2.53
2017-11-22T06:00:23.126Z,3.05
2017-11-22T06:02:50.624Z,3.10
2017-11-22T06:05:18.138Z,3.05
2017-11-22T06:07:46.392Z,2.40
2017-11-22T06:10:13.906Z,2.10
2017-11-22T06:12:41.398Z,2.80
2017-11-22T06:15:08.906Z,2.28
2017-11-22T06:17:36.428Z,3.08
2017-11-22T06:20:03.917Z,2.25
2017-11-22T06:22:32.189Z,2.30
2017-11-22T06:25:00.450Z,2.72
2017-11-22T06:27:27.967Z,2.90
2017-11-22T06:29:57.246Z,3.03
2017-11-22T06:32:24.737Z,2.60
2017-11-22T06:34:52.256Z,2.47
2017-11-22T06:37:19.745Z,3.80
2017-11-22T06:39:47.258Z,2.70
2017-11-22T06:42:15.567Z,2.62
2017-11-22T06:44:43.070Z,2.65
2017-11-22T06:47:10.565Z,4.28
2017-11-22T06:49:38.839Z,2.47
2017-11-22T06:52:07.111Z,2.37
2017-11-22T06:54:35.377Z,3.25
2017-11-22T06:57:03.140Z,3.05
2017-11-22T06:59:31.392Z,2.75
2017-11-22T07:01:58.906Z,2.60
2017-11-22T07:04:26.404Z,2.65
2017-11-22T07:06:53.903Z,2.50
2017-11-22T07:09:22.422Z,4.20
2017-11-22T07:11:49.958Z,2.47
2017-11-22T07:14:18.243Z,3.72
2017-11-22T07:16:51.374Z,2.28
2017-11-22T07:19:18.898Z,2.40
2017-11-22T07:21:46.448Z,2.97
2017-11-22T07:24:13.947Z,2.35
2017-11-22T07:26:41.477Z,2.95
2017-11-22T07:29:08.978Z,2.85
2017-11-22T07:31:36.470Z,2.97
2017-11-22T07:34:04.757Z,3.10
2017-11-22T07:36:38.750Z,2.40
2017-11-22T07:39:06.257Z,2.90
2017-11-22T07:41:33.749Z,3.37
2017-11-22T07:44:01.233Z,2.80
2017-11-22T07:46:29.518Z,3.10
2017-11-22T07:48:57.782Z,3.42
2017-11-22T07:51:31.723Z,2.90
2017-11-22T07:53:59.218Z,3.05
2017-11-22T07:56:26.738Z,3.87
2017-11-22T07:58:54.235Z,3.60
2017-11-22T08:01:21.726Z,2.80
2017-11-22T08:03:49.254Z,2.70
2017-11-22T08:06:16.746Z,2.45
2017-11-22T08:08:44.252Z,3.10
2017-11-22T08:11:11.751Z,2.70
2017-11-22T08:13:39.247Z,3.40
2017-11-22T08:16:07.529Z,3.42
2017-11-22T08:18:35.026Z,3.05
2017-11-22T08:21:02.534Z,2.75
2017-11-22T08:23:30.795Z,3.08
2017-11-22T08:25:58.305Z,3.33
2017-11-22T08:28:25.817Z,3.42
2017-11-22T08:30:53.529Z,3.62
2017-11-22T08:33:21.052Z,3.05
2017-11-22T08:35:49.313Z,3.20
2017-11-22T08:38:16.810Z,3.25
2017-11-22T08:40:44.375Z,2.97
2017-11-22T08:43:17.599Z,3.10
2017-11-22T08:45:45.115Z,2.70
2017-11-22T08:48:12.610Z,2.30
2017-11-22T08:50:40.107Z,2.42
2017-11-22T08:53:08.390Z,2.40
2017-11-22T08:55:42.244Z,3.12
2017-11-22T08:58:15.435Z,3.45
2017-11-22T09:00:43.854Z,2.70
2017-11-22T09:03:15.273Z,2.80
2017-11-22T09:05:48.830Z,3.20
2017-11-22T09:08:17.124Z,2.53
2017-11-22T09:10:44.714Z,2.72
2017-11-22T09:13:30.954Z,2.90
2017-11-22T09:15:58.444Z,2.42
2017-11-22T09:18:39.081Z,1.90
2017-11-22T09:21:09.417Z,2.60
2017-11-22T09:23:37.677Z,2.12
2017-11-22T09:26:05.194Z,3.47
2017-11-22T09:28:32.685Z,2.50
2017-11-22T09:31:05.833Z,2.47
2017-11-22T09:33:33.334Z,2.50
2017-11-22T09:36:00.854Z,2.70
2017-11-22T09:38:28.343Z,2.65
2017-11-22T09:40:55.841Z,2.50
2017-11-22T09:43:24.125Z,2.92
2017-11-22T09:45:52.400Z,2.45
2017-11-22T09:48:20.689Z,2.45
2017-11-22T09:50:48.192Z,2.20
2017-11-22T09:53:15.697Z,2.75
2017-11-22T09:55:43.987Z,3.05
2017-11-22T09:58:11.499Z,2.83
2017-11-22T10:00:39.020Z,2.42
2017-11-22T10:03:06.514Z,2.60
2017-11-22T10:05:34.020Z,2.50
2017-11-22T10:08:01.556Z,3.10
2017-11-22T10:10:29.053Z,3.20
2017-11-22T10:12:56.564Z,2.50
2017-11-22T10:15:24.062Z,2.80
2017-11-22T10:17:51.562Z,2.75
2017-11-22T10:20:19.905Z,2.58
2017-11-22T10:22:47.417Z,2.53
2017-11-22T10:25:21.834Z,2.55
2017-11-22T10:27:50.246Z,2.90
2017-11-22T10:30:18.543Z,3.00
2017-11-22T10:32:49.958Z,3.55
2017-11-22T10:35:17.475Z,2.65
2017-11-22T10:37:44.998Z,2.72
2017-11-22T10:40:13.277Z,2.55
2017-11-22T10:42:41.562Z,2.65
2017-11-22T10:45:09.069Z,2.22
2017-11-22T10:47:36.567Z,2.55
2017-11-22T10:50:04.851Z,2.22
2017-11-22T10:52:33.119Z,2.60
2017-11-22T10:55:01.402Z,2.75
2017-11-22T10:57:29.669Z,2.30
2017-11-22T10:59:57.181Z,3.22
2017-11-22T11:02:24.773Z,2.70
2017-11-22T11:04:52.268Z,2.90
2017-11-22T11:07:19.797Z,2.62
2017-11-22T11:09:47.318Z,2.65
2017-11-22T11:12:14.822Z,2.70
2017-11-22T11:14:43.114Z,2.15
2017-11-22T11:17:11.386Z,2.95
2017-11-22T11:19:39.680Z,2.77
2017-11-22T11:22:07.194Z,2.90
2017-11-22T11:24:34.690Z,3.00
2017-11-22T11:27:02.983Z,3.25
2017-11-22T11:29:30.492Z,2.83
2017-11-22T11:31:58.038Z,2.87
2017-11-22T11:34:25.546Z,2.45
2017-11-22T11:36:53.816Z,2.28
2017-11-22T11:39:22.101Z,2.60
2017-11-22T11:41:50.369Z,3.35
2017-11-22T11:44:18.657Z,3.10
2017-11-22T11:46:46.926Z,2.50
2017-11-22T11:49:15.254Z,2.37
2017-11-22T11:51:42.773Z,2.47
2017-11-22T11:54:11.051Z,3.00
2017-11-22T11:56:39.342Z,3.27
2017-11-22T11:59:06.853Z,2.70
2017-11-22T12:01:34.362Z,2.83
2017-11-22T12:04:01.898Z,2.67
2017-11-22T12:06:30.169Z,2.57
2017-11-22T12:08:57.690Z,2.73
2017-11-22T12:11:28.154Z,2.87
2017-11-22T12:13:55.655Z,2.50
2017-11-22T12:16:23.181Z,2.47
2017-11-22T12:18:51.445Z,2.27
2017-11-22T12:21:24.630Z,2.87
2017-11-22T12:23:52.132Z,3.80
2017-11-22T12:26:19.669Z,2.97
2017-11-22T12:28:47.157Z,2.60
2017-11-22T12:31:14.661Z,3.00
2017-11-22T12:33:42.187Z,2.40
2017-11-22T12:36:09.697Z,2.43
2017-11-22T12:38:37.217Z,2.67
2017-11-22T12:41:04.722Z,2.83
2017-11-22T12:43:39.620Z,2.67
2017-11-22T12:46:07.115Z,3.17
2017-11-22T12:48:35.381Z,2.33
2017-11-22T12:51:02.924Z,2.90
2017-11-22T12:53:30.440Z,2.70
2017-11-22T12:55:57.977Z,2.47
2017-11-22T12:58:26.258Z,2.42
2017-11-22T13:00:54.525Z,2.20
2017-11-22T13:03:22.814Z,2.30
2017-11-22T13:05:51.078Z,2.50
2017-11-22T13:08:18.605Z,2.23
2017-11-22T13:10:55.045Z,2.15
2017-11-22T13:13:25.124Z,1.95
2017-11-22T13:15:52.625Z,2.15
2017-11-22T13:18:20.126Z,1.95
2017-11-22T13:20:47.651Z,2.55
2017-11-22T13:23:15.158Z,2.53
2017-11-22T13:25:42.734Z,2.00
2017-11-22T13:28:10.242Z,2.15
2017-11-22T13:30:37.746Z,2.53
2017-11-22T13:33:06.038Z,2.22
2017-11-22T13:35:34.321Z,1.92
2017-11-22T13:38:01.910Z,1.80
2017-11-22T13:40:29.444Z,2.80
2017-11-22T13:42:56.946Z,2.50
2017-11-22T13:45:24.467Z,2.15
2017-11-22T13:47:51.984Z,2.07
2017-11-22T13:50:19.514Z,2.10
2017-11-22T13:52:47.019Z,2.10
2017-11-22T13:55:15.290Z,1.90
2017-11-22T13:57:42.828Z,2.40
2017-11-22T14:00:10.326Z,2.47
2017-11-22T14:02:38.630Z,1.90
2017-11-22T14:05:06.139Z,2.00
2017-11-22T14:07:33.673Z,2.70
2017-11-22T14:10:01.187Z,2.20
2017-11-22T14:12:28.718Z,2.03
2017-11-22T14:14:56.250Z,2.17
2017-11-22T14:17:23.741Z,2.43
2017-11-22T14:19:51.274Z,2.15
2017-11-22T14:22:18.779Z,2.12
2017-11-22T14:24:47.055Z,1.80
2017-11-22T14:27:15.337Z,2.45
2017-11-22T14:29:44.102Z,2.03
2017-11-22T14:32:11.637Z,2.03
2017-11-22T14:34:39.153Z,2.62
2017-11-22T14:37:07.439Z,2.60
2017-11-22T14:39:34.967Z,2.40
2017-11-22T14:42:03.258Z,2.55
2017-11-22T14:44:30.777Z,2.50
2017-11-22T14:46:58.338Z,2.20
2017-11-22T14:49:25.844Z,2.20
2017-11-22T14:51:53.378Z,1.98
2017-11-22T14:54:20.885Z,2.45
2017-11-22T14:56:48.393Z,2.10
2017-11-22T14:59:15.928Z,2.25
2017-11-22T15:01:43.426Z,2.15
2017-11-22T15:04:10.946Z,2.05
2017-11-22T15:06:38.458Z,2.20
2017-11-22T15:09:06.810Z,1.87
2017-11-22T15:11:34.308Z,1.87
2017-11-22T15:14:01.814Z,2.58
2017-11-22T15:16:29.330Z,2.72
2017-11-22T15:18:56.846Z,2.17
2017-11-22T15:21:24.339Z,2.62
2017-11-22T15:23:51.929Z,2.28
2017-11-22T15:26:19.431Z,2.95
2017-11-22T15:28:46.926Z,2.12
2017-11-22T15:31:14.467Z,2.97
2017-11-22T15:33:42.731Z,2.80
2017-11-22T15:36:11.298Z,2.10
2017-11-22T15:38:38.822Z,2.60
2017-11-22T15:41:08.270Z,2.70
2017-11-22T15:43:35.765Z,2.42
2017-11-22T15:46:04.055Z,2.40
2017-11-22T15:48:31.545Z,2.80
2017-11-22T15:50:59.039Z,2.30
2017-11-22T15:53:26.551Z,2.33
2017-11-22T15:55:54.058Z,2.20
2017-11-22T15:58:21.582Z,1.77
2017-11-22T16:00:49.074Z,2.83
2017-11-22T16:03:16.572Z,2.55
2017-11-22T16:05:44.087Z,2.37
2017-11-22T16:08:11.594Z,2.25
2017-11-22T16:10:39.881Z,3.15
2017-11-22T16:13:07.383Z,3.00
2017-11-22T16:15:34.894Z,2.28
2017-11-22T16:18:02.394Z,2.67
2017-11-22T16:20:29.891Z,3.10
2017-11-22T16:22:57.420Z,3.15
2017-11-22T16:25:24.914Z,2.90
2017-11-22T16:27:52.433Z,3.00
2017-11-22T16:30:19.933Z,2.87
2017-11-22T16:32:47.459Z,2.20
2017-11-22T16:35:14.954Z,2.20
2017-11-22T16:37:42.475Z,2.58
2017-11-22T16:40:09.966Z,3.20
2017-11-22T16:42:38.227Z,2.90
2017-11-22T16:45:06.505Z,3.55
2017-11-22T16:47:33.993Z,2.92
2017-11-22T16:50:01.539Z,3.03
2017-11-22T16:52:29.806Z,3.10
2017-11-22T16:54:58.070Z,3.10
2017-11-22T16:57:25.585Z,2.47
2017-11-22T16:59:53.084Z,2.97
2017-11-22T17:02:20.583Z,3.50
2017-11-22T17:04:48.100Z,3.10
2017-11-22T17:07:15.594Z,3.12
2017-11-22T17:09:43.128Z,3.65
2017-11-22T17:12:11.396Z,3.55
2017-11-22T17:14:38.888Z,3.40
2017-11-22T17:17:06.412Z,3.70
2017-11-22T17:19:33.909Z,3.70
2017-11-22T17:22:02.187Z,4.43
2017-11-22T17:24:29.816Z,3.87
2017-11-22T17:26:57.437Z,3.37
2017-11-22T17:29:24.953Z,3.35
2017-11-22T17:31:55.773Z,3.67
2017-11-22T17:34:23.300Z,3.55
2017-11-22T17:36:50.798Z,3.40
2017-11-22T17:39:18.762Z,3.85
2017-11-22T17:41:46.249Z,3.60
2017-11-22T17:44:14.505Z,3.65
2017-11-22T17:46:42.022Z,3.80
2017-11-22T17:49:09.526Z,5.28
2017-11-22T17:51:37.812Z,5.60
2017-11-22T17:54:06.081Z,4.55
2017-11-22T17:56:33.594Z,4.32
2017-11-22T17:59:01.093Z,3.78
2017-11-22T18:01:28.589Z,5.40
2017-11-22T18:03:56.112Z,7.20
2017-11-22T18:06:24.389Z,6.85
2017-11-22T18:08:51.902Z,5.65
2017-11-22T18:11:19.408Z,4.72
2017-11-22T18:13:46.898Z,4.00
2017-11-22T18:16:15.182Z,4.43
2017-11-22T18:18:42.672Z,3.83
2017-11-22T18:21:10.186Z,4.57
2017-11-22T18:23:38.446Z,3.83
2017-11-22T18:26:05.963Z,3.67
2017-11-22T18:28:34.231Z,4.22
2017-11-22T18:31:01.721Z,4.37
2017-11-22T18:33:29.235Z,3.92
2017-11-22T18:35:57.577Z,3.62
2017-11-22T18:38:25.098Z,4.18
2017-11-22T18:40:52.597Z,3.90
2017-11-22T18:43:20.114Z,3.17
2017-11-22T18:45:49.644Z,3.37
2017-11-22T18:48:17.159Z,3.37
2017-11-22T18:50:44.928Z,3.95
2017-11-22T18:53:12.706Z,3.55
2017-11-22T18:55:40.203Z,2.87
2017-11-22T18:58:07.699Z,3.80
2017-11-22T19:00:36.794Z,3.35
2017-11-22T19:03:04.308Z,3.12
2017-11-22T19:05:31.843Z,3.65
2017-11-22T19:07:59.370Z,2.75
2017-11-22T19:10:28.258Z,3.85
2017-11-22T19:12:56.534Z,3.40
2017-11-22T19:15:24.805Z,3.90
2017-11-22T19:17:53.892Z,3.50
2017-11-22T19:20:21.393Z,3.80
2017-11-22T19:22:48.901Z,3.80
2017-11-22T19:25:16.399Z,3.50
2017-11-22T19:27:43.920Z,4.22
2017-11-22T19:30:11.474Z,4.00
2017-11-22T19:32:38.999Z,4.15
2017-11-22T19:35:06.491Z,4.18
2017-11-22T19:37:34.011Z,3.67
2017-11-22T19:40:01.540Z,4.25
2017-11-22T19:42:29.807Z,4.05
2017-11-22T19:44:57.319Z,4.60
2017-11-22T19:47:24.823Z,4.57
2017-11-22T19:49:52.324Z,4.97
2017-11-22T19:52:19.846Z,4.05
2017-11-22T19:54:47.338Z,5.65
2017-11-22T19:57:14.896Z,3.78
2017-11-22T19:59:45.384Z,3.80
2017-11-22T20:02:12.970Z,4.62
2017-11-22T20:04:43.507Z,4.60
2017-11-22T20:07:23.671Z,5.45
2017-11-22T20:09:51.243Z,6.72
2017-11-22T20:12:19.576Z,6.65
2017-11-22T20:14:48.493Z,5.68
2017-11-22T20:17:16.754Z,3.90
2017-11-22T20:19:44.262Z,4.12
2017-11-22T20:22:11.761Z,4.70
2017-11-22T20:24:39.285Z,3.60
2017-11-22T20:27:06.949Z,3.62
2017-11-22T20:29:34.464Z,3.80
2017-11-22T20:32:01.966Z,3.22
2017-11-22T20:34:29.559Z,3.60
2017-11-22T20:36:57.066Z,2.92
2017-11-22T20:39:24.553Z,3.70
2017-11-22T20:41:52.066Z,3.20
2017-11-22T20:44:20.779Z,3.85
2017-11-22T20:46:48.285Z,3.62
2017-11-22T20:49:15.776Z,3.30
2017-11-22T20:51:44.044Z,3.65
2017-11-22T20:54:19.045Z,3.50
2017-11-22T20:56:46.562Z,3.70
2017-11-22T20:59:14.049Z,3.30
2017-11-22T21:01:41.536Z,3.30
2017-11-22T21:04:09.054Z,3.25
2017-11-22T21:06:36.547Z,3.20
2017-11-22T21:09:04.062Z,3.33
2017-11-22T21:11:31.566Z,2.80
2017-11-22T21:13:59.067Z,3.10
2017-11-22T21:16:26.593Z,2.90
2017-11-22T21:18:54.092Z,2.72
2017-11-22T21:21:21.617Z,2.62
2017-11-22T21:23:49.118Z,2.42
2017-11-22T21:26:16.643Z,3.08
2017-11-22T21:28:45.222Z,2.42
2017-11-22T21:31:12.713Z,3.10
2017-11-22T21:33:40.230Z,2.70
2017-11-22T21:36:07.730Z,2.62
2017-11-22T21:38:35.237Z,2.60
2017-11-22T21:41:02.735Z,2.80
2017-11-22T21:43:33.459Z,3.22
2017-11-22T21:46:00.948Z,2.97
2017-11-22T21:48:28.455Z,2.97
2017-11-22T21:50:55.970Z,2.85
2017-11-22T21:53:24.427Z,2.70
2017-11-22T21:55:53.506Z,3.20
2017-11-22T21:58:21.002Z,2.50
2017-11-22T22:00:48.510Z,2.95
2017-11-22T22:03:16.017Z,3.40
2017-11-22T22:05:43.535Z,3.60
2017-11-22T22:08:11.026Z,3.08
2017-11-22T22:10:39.310Z,4.00
2017-11-22T22:13:06.820Z,3.10
2017-11-22T22:15:34.339Z,3.00
2017-11-22T22:18:01.851Z,3.22
2017-11-22T22:20:29.349Z,2.67
2017-11-22T22:22:56.870Z,3.10
2017-11-22T22:25:24.365Z,2.92
2017-11-22T22:27:51.886Z,3.22
2017-11-22T22:30:19.381Z,3.42
2017-11-22T22:32:47.657Z,2.75
2017-11-22T22:35:15.907Z,3.00
2017-11-22T22:37:43.394Z,2.70
2017-11-22T22:40:11.671Z,2.70
2017-11-22T22:42:39.955Z,2.65
2017-11-22T22:45:07.471Z,2.70
2017-11-22T22:47:34.965Z,3.03
2017-11-22T22:50:03.310Z,2.50
2017-11-22T22:52:30.829Z,2.80
2017-11-22T22:54:58.335Z,3.10
2017-11-22T22:57:25.876Z,3.50
2017-11-22T22:59:53.370Z,2.22
2017-11-22T23:02:20.870Z,3.08
2017-11-22T23:04:48.454Z,2.50
2017-11-22T23:07:15.969Z,2.58
2017-11-22T23:09:43.471Z,2.97
2017-11-22T23:12:11.036Z,2.40
2017-11-22T23:14:38.531Z,2.80
2017-11-22T23:17:06.050Z,3.70
2017-11-22T23:19:33.851Z,3.05
2017-11-22T23:22:02.125Z,2.95
2017-11-22T23:24:29.618Z,2.95
2017-11-22T23:26:57.106Z,2.55
2017-11-22T23:29:24.614Z,2.85
2017-11-22T23:31:52.865Z,2.62
2017-11-22T23:34:20.370Z,3.00
2017-11-22T23:36:47.866Z,3.05
2017-11-22T23:39:15.385Z,2.60
2017-11-22T23:41:42.880Z,2.90
2017-11-22T23:44:10.402Z,2.53
2017-11-22T23:46:37.887Z,2.65
2017-11-22T23:49:05.405Z,2.60
2017-11-22T23:51:33.684Z,2.40
2017-11-22T23:54:01.970Z,2.58
2017-11-22T23:56:29.478Z,2.55
2017-11-22T23:58:56.976Z,2.20
